sensor_id;sensor_type;location;lat;lon;timestamp;P1;durP1;ratioP1;P2;durP2;ratioP2
16737;SDS011;17906;47.684;10.806;2022-07-29T00:01:09;1.98;;;1.02;;
16737;SDS011;17906;47.684;10.806;2022-07-29T00:03:40;1.38;;;1.00;;
16737;SDS011;17906;47.684;10.806;2022-07-29T00:06:07;3.08;;;1.05;;
16737;SDS011;17906;47.684;10.806;2022-07-29T00:08:35;1.85;;;0.85;;
16737;SDS011;17906;47.684;10.806;2022-07-29T00:11:01;2.53;;;1.17;;
16737;SDS011;17906;47.684;10.806;2022-07-29T00:13:28;1.50;;;1.10;;
16737;SDS011;17906;47.684;10.806;2022-07-29T00:15:55;1.65;;;1.05;;
16737;SDS011;17906;47.684;10.806;2022-07-29T00:18:21;3.28;;;1.00;;
16737;SDS011;17906;47.684;10.806;2022-07-29T00:20:48;1.60;;;0.98;;
16737;SDS011;17906;47.684;10.806;2022-07-29T00:23:14;1.75;;;0.88;;
16737;SDS011;17906;47.684;10.806;2022-07-29T00:25:42;2.90;;;1.08;;
16737;SDS011;17906;47.684;10.806;2022-07-29T00:28:09;2.72;;;1.40;;
16737;SDS011;17906;47.684;10.806;2022-07-29T00:30:35;1.35;;;1.00;;
16737;SDS011;17906;47.684;10.806;2022-07-29T00:33:02;1.35;;;1.10;;
16737;SDS011;17906;47.684;10.806;2022-07-29T00:35:29;1.50;;;1.20;;
16737;SDS011;17906;47.684;10.806;2022-07-29T00:38:10;5.43;;;1.30;;
16737;SDS011;17906;47.684;10.806;2022-07-29T00:40:37;3.05;;;1.17;;
16737;SDS011;17906;47.684;10.806;2022-07-29T00:43:06;1.42;;;0.90;;
16737;SDS011;17906;47.684;10.806;2022-07-29T00:45:33;2.55;;;1.48;;
16737;SDS011;17906;47.684;10.806;2022-07-29T00:48:00;2.08;;;1.20;;
16737;SDS011;17906;47.684;10.806;2022-07-29T00:50:27;1.40;;;1.23;;
16737;SDS011;17906;47.684;10.806;2022-07-29T00:52:54;2.25;;;1.30;;
16737;SDS011;17906;47.684;10.806;2022-07-29T00:55:21;2.70;;;1.25;;
16737;SDS011;17906;47.684;10.806;2022-07-29T00:57:48;2.95;;;1.10;;
16737;SDS011;17906;47.684;10.806;2022-07-29T01:00:18;2.22;;;1.55;;
16737;SDS011;17906;47.684;10.806;2022-07-29T01:02:45;4.50;;;1.25;;
16737;SDS011;17906;47.684;10.806;2022-07-29T01:05:13;2.03;;;1.20;;
16737;SDS011;17906;47.684;10.806;2022-07-29T01:07:42;2.45;;;1.30;;
16737;SDS011;17906;47.684;10.806;2022-07-29T01:10:09;2.65;;;0.90;;
16737;SDS011;17906;47.684;10.806;2022-07-29T01:12:39;2.83;;;1.17;;
16737;SDS011;17906;47.684;10.806;2022-07-29T01:15:07;4.28;;;1.30;;
16737;SDS011;17906;47.684;10.806;2022-07-29T01:17:38;1.48;;;1.25;;
16737;SDS011;17906;47.684;10.806;2022-07-29T01:20:11;1.08;;;0.93;;
16737;SDS011;17906;47.684;10.806;2022-07-29T01:22:55;2.28;;;1.35;;
16737;SDS011;17906;47.684;10.806;2022-07-29T01:25:45;1.73;;;1.10;;
16737;SDS011;17906;47.684;10.806;2022-07-29T01:31:25;4.07;;;1.10;;
16737;SDS011;17906;47.684;10.806;2022-07-29T01:33:58;1.23;;;1.02;;
16737;SDS011;17906;47.684;10.806;2022-07-29T01:36:30;1.80;;;1.13;;
16737;SDS011;17906;47.684;10.806;2022-07-29T01:39:02;1.57;;;1.13;;
16737;SDS011;17906;47.684;10.806;2022-07-29T01:41:34;2.20;;;1.20;;
16737;SDS011;17906;47.684;10.806;2022-07-29T01:44:07;1.70;;;1.30;;
16737;SDS011;17906;47.684;10.806;2022-07-29T01:46:40;2.17;;;1.20;;
16737;SDS011;17906;47.684;10.806;2022-07-29T01:49:10;1.83;;;1.20;;
16737;SDS011;17906;47.684;10.806;2022-07-29T01:51:41;1.60;;;1.00;;
16737;SDS011;17906;47.684;10.806;2022-07-29T01:54:13;1.40;;;1.00;;
16737;SDS011;17906;47.684;10.806;2022-07-29T01:56:44;2.00;;;1.10;;
16737;SDS011;17906;47.684;10.806;2022-07-29T01:59:14;1.30;;;1.00;;
16737;SDS011;17906;47.684;10.806;2022-07-29T02:01:43;2.67;;;1.17;;
16737;SDS011;17906;47.684;10.806;2022-07-29T02:04:12;2.23;;;1.30;;
16737;SDS011;17906;47.684;10.806;2022-07-29T02:06:43;1.77;;;1.40;;
16737;SDS011;17906;47.684;10.806;2022-07-29T02:09:12;1.37;;;1.20;;
16737;SDS011;17906;47.684;10.806;2022-07-29T02:11:41;4.40;;;1.30;;
16737;SDS011;17906;47.684;10.806;2022-07-29T02:14:14;1.80;;;1.30;;
16737;SDS011;17906;47.684;10.806;2022-07-29T02:16:43;1.57;;;1.03;;
16737;SDS011;17906;47.684;10.806;2022-07-29T02:19:13;2.43;;;1.00;;
16737;SDS011;17906;47.684;10.806;2022-07-29T02:21:40;1.57;;;1.23;;
16737;SDS011;17906;47.684;10.806;2022-07-29T02:24:08;1.47;;;1.07;;
16737;SDS011;17906;47.684;10.806;2022-07-29T02:26:38;1.92;;;1.20;;
16737;SDS011;17906;47.684;10.806;2022-07-29T02:29:07;2.08;;;0.93;;
16737;SDS011;17906;47.684;10.806;2022-07-29T02:31:37;2.33;;;1.30;;
16737;SDS011;17906;47.684;10.806;2022-07-29T02:34:06;1.43;;;1.00;;
16737;SDS011;17906;47.684;10.806;2022-07-29T02:36:35;3.10;;;1.10;;
16737;SDS011;17906;47.684;10.806;2022-07-29T02:39:03;1.27;;;1.13;;
16737;SDS011;17906;47.684;10.806;2022-07-29T02:41:33;4.50;;;1.43;;
16737;SDS011;17906;47.684;10.806;2022-07-29T02:44:06;2.87;;;1.20;;
16737;SDS011;17906;47.684;10.806;2022-07-29T02:46:37;2.80;;;1.20;;
16737;SDS011;17906;47.684;10.806;2022-07-29T02:49:10;2.83;;;1.10;;
16737;SDS011;17906;47.684;10.806;2022-07-29T02:51:43;1.43;;;1.13;;
16737;SDS011;17906;47.684;10.806;2022-07-29T02:54:14;1.40;;;0.97;;
16737;SDS011;17906;47.684;10.806;2022-07-29T02:56:48;3.00;;;1.20;;
16737;SDS011;17906;47.684;10.806;2022-07-29T02:59:19;3.37;;;1.07;;
16737;SDS011;17906;47.684;10.806;2022-07-29T03:01:52;2.50;;;1.03;;
16737;SDS011;17906;47.684;10.806;2022-07-29T03:04:21;5.47;;;1.20;;
16737;SDS011;17906;47.684;10.806;2022-07-29T03:06:51;2.97;;;1.33;;
16737;SDS011;17906;47.684;10.806;2022-07-29T03:09:19;2.60;;;1.10;;
16737;SDS011;17906;47.684;10.806;2022-07-29T03:11:47;3.23;;;1.47;;
16737;SDS011;17906;47.684;10.806;2022-07-29T03:14:14;1.97;;;1.00;;
16737;SDS011;17906;47.684;10.806;2022-07-29T03:16:42;2.63;;;1.07;;
16737;SDS011;17906;47.684;10.806;2022-07-29T03:19:10;1.40;;;0.97;;
16737;SDS011;17906;47.684;10.806;2022-07-29T03:21:37;2.67;;;0.90;;
16737;SDS011;17906;47.684;10.806;2022-07-29T03:24:04;1.57;;;1.27;;
16737;SDS011;17906;47.684;10.806;2022-07-29T03:26:31;2.20;;;1.17;;
16737;SDS011;17906;47.684;10.806;2022-07-29T03:28:57;3.00;;;1.20;;
16737;SDS011;17906;47.684;10.806;2022-07-29T03:31:24;1.73;;;1.07;;
16737;SDS011;17906;47.684;10.806;2022-07-29T03:33:50;3.23;;;1.30;;
16737;SDS011;17906;47.684;10.806;2022-07-29T03:36:18;2.40;;;1.00;;
16737;SDS011;17906;47.684;10.806;2022-07-29T03:38:45;1.87;;;0.90;;
16737;SDS011;17906;47.684;10.806;2022-07-29T03:41:13;1.60;;;1.03;;
16737;SDS011;17906;47.684;10.806;2022-07-29T03:43:42;1.30;;;0.90;;
16737;SDS011;17906;47.684;10.806;2022-07-29T03:46:10;1.00;;;0.83;;
16737;SDS011;17906;47.684;10.806;2022-07-29T03:48:39;2.13;;;0.80;;
16737;SDS011;17906;47.684;10.806;2022-07-29T03:51:10;2.37;;;1.00;;
16737;SDS011;17906;47.684;10.806;2022-07-29T03:53:38;1.00;;;0.87;;
16737;SDS011;17906;47.684;10.806;2022-07-29T03:56:04;1.43;;;1.10;;
16737;SDS011;17906;47.684;10.806;2022-07-29T03:58:32;1.00;;;0.90;;
16737;SDS011;17906;47.684;10.806;2022-07-29T04:01:00;3.37;;;1.00;;
16737;SDS011;17906;47.684;10.806;2022-07-29T04:03:27;1.40;;;1.00;;
16737;SDS011;17906;47.684;10.806;2022-07-29T04:06:00;3.33;;;0.90;;
16737;SDS011;17906;47.684;10.806;2022-07-29T04:08:28;4.47;;;1.20;;
16737;SDS011;17906;47.684;10.806;2022-07-29T04:10:56;1.23;;;1.00;;
16737;SDS011;17906;47.684;10.806;2022-07-29T04:13:23;1.63;;;1.10;;
16737;SDS011;17906;47.684;10.806;2022-07-29T04:15:49;2.80;;;1.07;;
16737;SDS011;17906;47.684;10.806;2022-07-29T04:18:16;2.40;;;1.43;;
16737;SDS011;17906;47.684;10.806;2022-07-29T04:20:42;1.80;;;1.23;;
16737;SDS011;17906;47.684;10.806;2022-07-29T04:23:09;4.83;;;1.40;;
16737;SDS011;17906;47.684;10.806;2022-07-29T04:25:36;3.60;;;1.13;;
16737;SDS011;17906;47.684;10.806;2022-07-29T04:28:06;2.23;;;1.40;;
16737;SDS011;17906;47.684;10.806;2022-07-29T04:30:33;2.67;;;1.10;;
16737;SDS011;17906;47.684;10.806;2022-07-29T04:33:02;2.73;;;1.30;;
16737;SDS011;17906;47.684;10.806;2022-07-29T04:35:30;1.87;;;1.10;;
16737;SDS011;17906;47.684;10.806;2022-07-29T04:37:57;2.23;;;1.00;;
16737;SDS011;17906;47.684;10.806;2022-07-29T04:40:23;2.17;;;0.90;;
16737;SDS011;17906;47.684;10.806;2022-07-29T04:42:50;2.10;;;0.90;;
16737;SDS011;17906;47.684;10.806;2022-07-29T04:45:18;1.60;;;0.83;;
16737;SDS011;17906;47.684;10.806;2022-07-29T04:47:45;1.23;;;0.93;;
16737;SDS011;17906;47.684;10.806;2022-07-29T04:50:12;3.27;;;0.93;;
16737;SDS011;17906;47.684;10.806;2022-07-29T04:52:38;1.70;;;1.10;;
16737;SDS011;17906;47.684;10.806;2022-07-29T04:55:05;1.00;;;0.90;;
16737;SDS011;17906;47.684;10.806;2022-07-29T04:57:32;1.27;;;1.17;;
16737;SDS011;17906;47.684;10.806;2022-07-29T04:59:59;4.27;;;1.20;;
16737;SDS011;17906;47.684;10.806;2022-07-29T05:02:27;2.37;;;1.50;;
16737;SDS011;17906;47.684;10.806;2022-07-29T05:04:53;1.60;;;1.30;;
16737;SDS011;17906;47.684;10.806;2022-07-29T05:07:20;2.30;;;1.00;;
16737;SDS011;17906;47.684;10.806;2022-07-29T05:09:47;4.10;;;1.20;;
16737;SDS011;17906;47.684;10.806;2022-07-29T05:12:13;2.33;;;1.30;;
16737;SDS011;17906;47.684;10.806;2022-07-29T05:14:40;1.73;;;1.40;;
16737;SDS011;17906;47.684;10.806;2022-07-29T05:17:06;2.47;;;1.20;;
16737;SDS011;17906;47.684;10.806;2022-07-29T05:19:34;1.47;;;1.10;;
16737;SDS011;17906;47.684;10.806;2022-07-29T05:22:01;1.53;;;1.00;;
16737;SDS011;17906;47.684;10.806;2022-07-29T05:24:27;3.77;;;1.20;;
16737;SDS011;17906;47.684;10.806;2022-07-29T05:26:54;2.27;;;1.23;;
16737;SDS011;17906;47.684;10.806;2022-07-29T05:29:21;2.23;;;1.23;;
16737;SDS011;17906;47.684;10.806;2022-07-29T05:31:47;1.77;;;1.23;;
16737;SDS011;17906;47.684;10.806;2022-07-29T05:34:14;1.80;;;1.30;;
16737;SDS011;17906;47.684;10.806;2022-07-29T05:36:42;1.50;;;1.33;;
16737;SDS011;17906;47.684;10.806;2022-07-29T05:39:08;2.60;;;1.40;;
16737;SDS011;17906;47.684;10.806;2022-07-29T05:41:35;1.80;;;1.37;;
16737;SDS011;17906;47.684;10.806;2022-07-29T05:44:02;1.60;;;1.30;;
16737;SDS011;17906;47.684;10.806;2022-07-29T05:46:28;2.87;;;1.40;;
16737;SDS011;17906;47.684;10.806;2022-07-29T05:48:55;2.07;;;1.30;;
16737;SDS011;17906;47.684;10.806;2022-07-29T05:51:22;3.28;;;1.63;;
16737;SDS011;17906;47.684;10.806;2022-07-29T05:53:49;6.57;;;1.30;;
16737;SDS011;17906;47.684;10.806;2022-07-29T05:56:16;1.70;;;1.40;;
16737;SDS011;17906;47.684;10.806;2022-07-29T05:58:43;2.78;;;1.58;;
16737;SDS011;17906;47.684;10.806;2022-07-29T06:01:09;3.05;;;1.63;;
16737;SDS011;17906;47.684;10.806;2022-07-29T06:03:36;1.98;;;1.45;;
16737;SDS011;17906;47.684;10.806;2022-07-29T06:06:03;3.15;;;1.80;;
16737;SDS011;17906;47.684;10.806;2022-07-29T06:08:30;4.88;;;2.05;;
16737;SDS011;17906;47.684;10.806;2022-07-29T06:11:00;2.78;;;1.90;;
16737;SDS011;17906;47.684;10.806;2022-07-29T06:13:26;3.53;;;1.80;;
16737;SDS011;17906;47.684;10.806;2022-07-29T06:15:53;2.60;;;1.73;;
16737;SDS011;17906;47.684;10.806;2022-07-29T06:18:20;3.53;;;1.70;;
16737;SDS011;17906;47.684;10.806;2022-07-29T06:20:48;2.08;;;1.70;;
16737;SDS011;17906;47.684;10.806;2022-07-29T06:23:15;1.73;;;1.50;;
16737;SDS011;17906;47.684;10.806;2022-07-29T06:25:42;4.05;;;1.80;;
16737;SDS011;17906;47.684;10.806;2022-07-29T06:28:10;3.05;;;1.80;;
16737;SDS011;17906;47.684;10.806;2022-07-29T06:30:37;1.40;;;1.20;;
16737;SDS011;17906;47.684;10.806;2022-07-29T06:33:04;1.40;;;1.30;;
16737;SDS011;17906;47.684;10.806;2022-07-29T06:35:32;3.00;;;1.35;;
16737;SDS011;17906;47.684;10.806;2022-07-29T06:38:00;1.73;;;1.60;;
16737;SDS011;17906;47.684;10.806;2022-07-29T06:40:27;15.18;;;1.90;;
16737;SDS011;17906;47.684;10.806;2022-07-29T06:43:12;1.40;;;1.30;;
16737;SDS011;17906;47.684;10.806;2022-07-29T06:45:39;1.70;;;1.30;;
16737;SDS011;17906;47.684;10.806;2022-07-29T06:48:07;1.75;;;1.23;;
16737;SDS011;17906;47.684;10.806;2022-07-29T06:50:34;1.80;;;1.48;;
16737;SDS011;17906;47.684;10.806;2022-07-29T06:53:01;1.60;;;1.40;;
16737;SDS011;17906;47.684;10.806;2022-07-29T06:55:27;2.40;;;1.45;;
16737;SDS011;17906;47.684;10.806;2022-07-29T06:57:54;1.88;;;1.50;;
16737;SDS011;17906;47.684;10.806;2022-07-29T07:00:22;2.38;;;1.42;;
16737;SDS011;17906;47.684;10.806;2022-07-29T07:02:48;2.60;;;1.30;;
16737;SDS011;17906;47.684;10.806;2022-07-29T07:05:15;3.67;;;1.40;;
16737;SDS011;17906;47.684;10.806;2022-07-29T07:07:41;1.80;;;1.30;;
16737;SDS011;17906;47.684;10.806;2022-07-29T07:10:08;2.20;;;1.40;;
16737;SDS011;17906;47.684;10.806;2022-07-29T07:12:35;1.63;;;1.23;;
16737;SDS011;17906;47.684;10.806;2022-07-29T07:15:01;1.45;;;1.13;;
16737;SDS011;17906;47.684;10.806;2022-07-29T07:17:30;1.80;;;1.38;;
16737;SDS011;17906;47.684;10.806;2022-07-29T07:19:56;1.70;;;1.40;;
16737;SDS011;17906;47.684;10.806;2022-07-29T07:22:23;1.95;;;1.50;;
16737;SDS011;17906;47.684;10.806;2022-07-29T07:24:50;2.58;;;1.70;;
16737;SDS011;17906;47.684;10.806;2022-07-29T07:27:16;3.53;;;1.45;;
16737;SDS011;17906;47.684;10.806;2022-07-29T07:29:43;1.60;;;1.40;;
16737;SDS011;17906;47.684;10.806;2022-07-29T07:32:09;1.50;;;1.20;;
16737;SDS011;17906;47.684;10.806;2022-07-29T07:34:39;3.58;;;1.50;;
16737;SDS011;17906;47.684;10.806;2022-07-29T07:37:05;5.13;;;1.48;;
16737;SDS011;17906;47.684;10.806;2022-07-29T07:39:32;3.63;;;1.30;;
16737;SDS011;17906;47.684;10.806;2022-07-29T07:41:59;1.95;;;1.58;;
16737;SDS011;17906;47.684;10.806;2022-07-29T07:44:26;2.85;;;1.67;;
16737;SDS011;17906;47.684;10.806;2022-07-29T07:46:53;1.77;;;1.50;;
16737;SDS011;17906;47.684;10.806;2022-07-29T07:49:19;1.58;;;1.42;;
16737;SDS011;17906;47.684;10.806;2022-07-29T07:51:47;4.13;;;1.85;;
16737;SDS011;17906;47.684;10.806;2022-07-29T07:54:14;3.92;;;1.60;;
16737;SDS011;17906;47.684;10.806;2022-07-29T07:56:40;1.88;;;1.50;;
16737;SDS011;17906;47.684;10.806;2022-07-29T07:59:07;1.70;;;1.55;;
16737;SDS011;17906;47.684;10.806;2022-07-29T08:01:33;2.03;;;1.40;;
16737;SDS011;17906;47.684;10.806;2022-07-29T08:04:00;1.95;;;1.40;;
16737;SDS011;17906;47.684;10.806;2022-07-29T08:06:26;2.10;;;1.50;;
16737;SDS011;17906;47.684;10.806;2022-07-29T08:08:55;2.58;;;1.35;;
16737;SDS011;17906;47.684;10.806;2022-07-29T08:11:21;2.40;;;1.52;;
16737;SDS011;17906;47.684;10.806;2022-07-29T08:13:48;1.63;;;1.40;;
16737;SDS011;17906;47.684;10.806;2022-07-29T08:16:15;1.85;;;1.30;;
16737;SDS011;17906;47.684;10.806;2022-07-29T08:18:43;2.42;;;1.50;;
16737;SDS011;17906;47.684;10.806;2022-07-29T08:21:11;2.08;;;1.65;;
16737;SDS011;17906;47.684;10.806;2022-07-29T08:23:38;2.15;;;1.65;;
16737;SDS011;17906;47.684;10.806;2022-07-29T08:26:11;2.58;;;1.70;;
16737;SDS011;17906;47.684;10.806;2022-07-29T08:28:39;2.50;;;1.60;;
16737;SDS011;17906;47.684;10.806;2022-07-29T08:31:09;2.25;;;1.80;;
16737;SDS011;17906;47.684;10.806;2022-07-29T08:33:36;5.40;;;1.67;;
16737;SDS011;17906;47.684;10.806;2022-07-29T08:36:02;3.85;;;1.63;;
16737;SDS011;17906;47.684;10.806;2022-07-29T08:38:29;2.22;;;1.60;;
16737;SDS011;17906;47.684;10.806;2022-07-29T08:40:56;2.20;;;1.80;;
16737;SDS011;17906;47.684;10.806;2022-07-29T08:43:24;2.70;;;1.55;;
16737;SDS011;17906;47.684;10.806;2022-07-29T08:45:51;2.63;;;1.88;;
16737;SDS011;17906;47.684;10.806;2022-07-29T08:48:18;3.78;;;1.77;;
16737;SDS011;17906;47.684;10.806;2022-07-29T08:50:47;3.22;;;1.70;;
16737;SDS011;17906;47.684;10.806;2022-07-29T08:53:16;2.47;;;2.03;;
16737;SDS011;17906;47.684;10.806;2022-07-29T08:55:44;3.88;;;2.40;;
16737;SDS011;17906;47.684;10.806;2022-07-29T08:58:12;2.30;;;2.10;;
16737;SDS011;17906;47.684;10.806;2022-07-29T09:00:42;6.40;;;2.40;;
16737;SDS011;17906;47.684;10.806;2022-07-29T09:03:12;3.35;;;1.75;;
16737;SDS011;17906;47.684;10.806;2022-07-29T09:05:42;4.30;;;2.15;;
16737;SDS011;17906;47.684;10.806;2022-07-29T09:08:12;2.90;;;1.90;;
16737;SDS011;17906;47.684;10.806;2022-07-29T09:10:39;3.85;;;2.10;;
16737;SDS011;17906;47.684;10.806;2022-07-29T09:13:05;3.38;;;1.95;;
16737;SDS011;17906;47.684;10.806;2022-07-29T09:15:32;2.22;;;1.98;;
16737;SDS011;17906;47.684;10.806;2022-07-29T09:18:00;3.00;;;2.25;;
16737;SDS011;17906;47.684;10.806;2022-07-29T09:20:27;2.78;;;1.90;;
16737;SDS011;17906;47.684;10.806;2022-07-29T09:23:14;3.70;;;2.20;;
16737;SDS011;17906;47.684;10.806;2022-07-29T09:25:41;2.55;;;2.22;;
16737;SDS011;17906;47.684;10.806;2022-07-29T09:28:08;4.05;;;2.15;;
16737;SDS011;17906;47.684;10.806;2022-07-29T09:30:35;6.15;;;2.03;;
16737;SDS011;17906;47.684;10.806;2022-07-29T09:33:16;2.42;;;1.90;;
16737;SDS011;17906;47.684;10.806;2022-07-29T09:35:43;3.55;;;2.05;;
16737;SDS011;17906;47.684;10.806;2022-07-29T09:38:10;5.38;;;2.20;;
16737;SDS011;17906;47.684;10.806;2022-07-29T09:40:37;5.10;;;2.00;;
16737;SDS011;17906;47.684;10.806;2022-07-29T09:43:09;3.08;;;1.70;;
16737;SDS011;17906;47.684;10.806;2022-07-29T09:45:36;3.45;;;1.90;;
16737;SDS011;17906;47.684;10.806;2022-07-29T09:48:12;2.10;;;1.80;;
16737;SDS011;17906;47.684;10.806;2022-07-29T09:50:41;3.65;;;1.95;;
16737;SDS011;17906;47.684;10.806;2022-07-29T09:53:09;3.13;;;1.90;;
16737;SDS011;17906;47.684;10.806;2022-07-29T09:55:46;21.05;;;3.28;;
16737;SDS011;17906;47.684;10.806;2022-07-29T09:58:14;4.25;;;1.92;;
16737;SDS011;17906;47.684;10.806;2022-07-29T10:00:42;12.60;;;2.50;;
16737;SDS011;17906;47.684;10.806;2022-07-29T10:03:10;3.90;;;2.10;;
16737;SDS011;17906;47.684;10.806;2022-07-29T10:05:37;3.30;;;1.77;;
16737;SDS011;17906;47.684;10.806;2022-07-29T10:08:06;1.92;;;1.73;;
16737;SDS011;17906;47.684;10.806;2022-07-29T10:10:34;11.93;;;2.25;;
16737;SDS011;17906;47.684;10.806;2022-07-29T10:13:03;2.58;;;1.83;;
16737;SDS011;17906;47.684;10.806;2022-07-29T10:15:32;37.25;;;4.78;;
16737;SDS011;17906;47.684;10.806;2022-07-29T10:18:02;2.28;;;2.00;;
16737;SDS011;17906;47.684;10.806;2022-07-29T10:20:29;3.10;;;2.03;;
16737;SDS011;17906;47.684;10.806;2022-07-29T10:22:56;8.25;;;2.28;;
16737;SDS011;17906;47.684;10.806;2022-07-29T10:25:24;5.63;;;2.30;;
16737;SDS011;17906;47.684;10.806;2022-07-29T10:27:52;6.78;;;2.13;;
16737;SDS011;17906;47.684;10.806;2022-07-29T10:30:22;3.10;;;2.20;;
16737;SDS011;17906;47.684;10.806;2022-07-29T10:33:08;3.08;;;2.15;;
16737;SDS011;17906;47.684;10.806;2022-07-29T10:35:59;6.25;;;2.15;;
16737;SDS011;17906;47.684;10.806;2022-07-29T10:38:42;15.80;;;2.70;;
16737;SDS011;17906;47.684;10.806;2022-07-29T10:41:18;4.97;;;1.95;;
16737;SDS011;17906;47.684;10.806;2022-07-29T10:43:58;4.78;;;2.10;;
16737;SDS011;17906;47.684;10.806;2022-07-29T10:46:27;2.63;;;2.22;;
16737;SDS011;17906;47.684;10.806;2022-07-29T10:49:03;3.22;;;2.20;;
16737;SDS011;17906;47.684;10.806;2022-07-29T10:54:17;2.83;;;1.90;;
16737;SDS011;17906;47.684;10.806;2022-07-29T10:56:45;3.13;;;1.90;;
16737;SDS011;17906;47.684;10.806;2022-07-29T10:59:25;2.08;;;1.73;;
16737;SDS011;17906;47.684;10.806;2022-07-29T11:01:53;3.85;;;1.90;;
16737;SDS011;17906;47.684;10.806;2022-07-29T11:07:26;2.17;;;1.75;;
16737;SDS011;17906;47.684;10.806;2022-07-29T11:12:48;3.58;;;1.98;;
16737;SDS011;17906;47.684;10.806;2022-07-29T11:15:16;3.05;;;1.80;;
16737;SDS011;17906;47.684;10.806;2022-07-29T11:20:35;1.95;;;1.65;;
16737;SDS011;17906;47.684;10.806;2022-07-29T11:23:17;2.00;;;1.80;;
16737;SDS011;17906;47.684;10.806;2022-07-29T11:25:45;4.40;;;1.98;;
16737;SDS011;17906;47.684;10.806;2022-07-29T11:28:16;2.85;;;1.75;;
16737;SDS011;17906;47.684;10.806;2022-07-29T11:30:47;3.13;;;1.90;;
16737;SDS011;17906;47.684;10.806;2022-07-29T11:33:26;2.45;;;1.83;;
16737;SDS011;17906;47.684;10.806;2022-07-29T11:36:09;1.63;;;1.50;;
16737;SDS011;17906;47.684;10.806;2022-07-29T11:38:37;1.55;;;1.45;;
16737;SDS011;17906;47.684;10.806;2022-07-29T11:41:19;2.85;;;1.63;;
16737;SDS011;17906;47.684;10.806;2022-07-29T11:43:48;3.17;;;1.50;;
16737;SDS011;17906;47.684;10.806;2022-07-29T11:46:16;2.10;;;1.63;;
16737;SDS011;17906;47.684;10.806;2022-07-29T11:48:44;2.30;;;1.90;;
16737;SDS011;17906;47.684;10.806;2022-07-29T11:51:11;2.85;;;1.70;;
16737;SDS011;17906;47.684;10.806;2022-07-29T11:53:38;1.70;;;1.60;;
16737;SDS011;17906;47.684;10.806;2022-07-29T11:56:06;2.17;;;1.60;;
16737;SDS011;17906;47.684;10.806;2022-07-29T11:58:34;2.40;;;1.88;;
16737;SDS011;17906;47.684;10.806;2022-07-29T12:01:03;2.78;;;1.67;;
16737;SDS011;17906;47.684;10.806;2022-07-29T12:03:30;1.60;;;1.48;;
16737;SDS011;17906;47.684;10.806;2022-07-29T12:05:56;3.22;;;1.50;;
16737;SDS011;17906;47.684;10.806;2022-07-29T12:08:23;4.15;;;1.80;;
16737;SDS011;17906;47.684;10.806;2022-07-29T12:10:51;4.53;;;1.80;;
16737;SDS011;17906;47.684;10.806;2022-07-29T12:13:18;1.90;;;1.60;;
16737;SDS011;17906;47.684;10.806;2022-07-29T12:15:53;1.70;;;1.60;;
16737;SDS011;17906;47.684;10.806;2022-07-29T12:18:21;3.35;;;1.55;;
16737;SDS011;17906;47.684;10.806;2022-07-29T12:20:48;2.50;;;1.60;;
16737;SDS011;17906;47.684;10.806;2022-07-29T12:23:22;2.63;;;1.80;;
16737;SDS011;17906;47.684;10.806;2022-07-29T12:25:49;2.85;;;1.75;;
16737;SDS011;17906;47.684;10.806;2022-07-29T12:28:15;2.47;;;1.77;;
16737;SDS011;17906;47.684;10.806;2022-07-29T12:30:44;3.58;;;1.50;;
16737;SDS011;17906;47.684;10.806;2022-07-29T12:33:17;4.28;;;1.80;;
16737;SDS011;17906;47.684;10.806;2022-07-29T12:35:49;3.25;;;1.60;;
16737;SDS011;17906;47.684;10.806;2022-07-29T12:38:17;3.38;;;1.52;;
16737;SDS011;17906;47.684;10.806;2022-07-29T12:40:45;2.10;;;1.70;;
16737;SDS011;17906;47.684;10.806;2022-07-29T12:43:14;22.25;;;2.88;;
16737;SDS011;17906;47.684;10.806;2022-07-29T12:45:42;6.57;;;1.90;;
16737;SDS011;17906;47.684;10.806;2022-07-29T12:48:10;2.03;;;1.50;;
16737;SDS011;17906;47.684;10.806;2022-07-29T12:50:52;2.80;;;1.40;;
16737;SDS011;17906;47.684;10.806;2022-07-29T12:53:20;1.77;;;1.60;;
16737;SDS011;17906;47.684;10.806;2022-07-29T12:55:48;2.00;;;1.50;;
16737;SDS011;17906;47.684;10.806;2022-07-29T12:58:25;8.35;;;1.77;;
16737;SDS011;17906;47.684;10.806;2022-07-29T13:01:03;1.50;;;1.40;;
16737;SDS011;17906;47.684;10.806;2022-07-29T13:06:33;4.43;;;1.70;;
16737;SDS011;17906;47.684;10.806;2022-07-29T13:09:06;1.70;;;1.55;;
16737;SDS011;17906;47.684;10.806;2022-07-29T13:11:35;2.17;;;1.50;;
16737;SDS011;17906;47.684;10.806;2022-07-29T13:14:04;11.88;;;2.05;;
16737;SDS011;17906;47.684;10.806;2022-07-29T13:16:33;3.78;;;1.70;;
16737;SDS011;17906;47.684;10.806;2022-07-29T13:19:07;3.10;;;1.67;;
16737;SDS011;17906;47.684;10.806;2022-07-29T13:21:36;2.40;;;1.40;;
16737;SDS011;17906;47.684;10.806;2022-07-29T13:24:04;5.35;;;1.60;;
16737;SDS011;17906;47.684;10.806;2022-07-29T13:26:32;2.65;;;1.50;;
16737;SDS011;17906;47.684;10.806;2022-07-29T13:28:59;2.25;;;1.58;;
16737;SDS011;17906;47.684;10.806;2022-07-29T13:31:26;6.05;;;1.70;;
16737;SDS011;17906;47.684;10.806;2022-07-29T13:33:52;5.45;;;1.50;;
16737;SDS011;17906;47.684;10.806;2022-07-29T13:36:19;2.38;;;1.58;;
16737;SDS011;17906;47.684;10.806;2022-07-29T13:38:47;1.40;;;1.30;;
16737;SDS011;17906;47.684;10.806;2022-07-29T13:41:13;2.40;;;1.40;;
16737;SDS011;17906;47.684;10.806;2022-07-29T13:43:40;1.55;;;1.42;;
16737;SDS011;17906;47.684;10.806;2022-07-29T13:46:06;2.45;;;1.70;;
16737;SDS011;17906;47.684;10.806;2022-07-29T13:48:33;2.65;;;1.80;;
16737;SDS011;17906;47.684;10.806;2022-07-29T13:51:00;1.40;;;1.30;;
16737;SDS011;17906;47.684;10.806;2022-07-29T13:53:27;2.65;;;1.65;;
16737;SDS011;17906;47.684;10.806;2022-07-29T13:55:55;12.23;;;1.88;;
16737;SDS011;17906;47.684;10.806;2022-07-29T13:58:21;2.78;;;1.70;;
16737;SDS011;17906;47.684;10.806;2022-07-29T14:00:48;2.83;;;1.73;;
16737;SDS011;17906;47.684;10.806;2022-07-29T14:03:15;1.70;;;1.60;;
16737;SDS011;17906;47.684;10.806;2022-07-29T14:05:41;6.15;;;1.55;;
16737;SDS011;17906;47.684;10.806;2022-07-29T14:08:08;4.60;;;1.88;;
16737;SDS011;17906;47.684;10.806;2022-07-29T14:10:34;2.78;;;1.45;;
16737;SDS011;17906;47.684;10.806;2022-07-29T14:13:02;3.17;;;1.65;;
16737;SDS011;17906;47.684;10.806;2022-07-29T14:15:29;2.00;;;1.50;;
16737;SDS011;17906;47.684;10.806;2022-07-29T14:17:56;4.45;;;1.85;;
16737;SDS011;17906;47.684;10.806;2022-07-29T14:20:22;2.28;;;1.60;;
16737;SDS011;17906;47.684;10.806;2022-07-29T14:22:49;6.53;;;1.90;;
16737;SDS011;17906;47.684;10.806;2022-07-29T14:25:15;7.57;;;1.70;;
16737;SDS011;17906;47.684;10.806;2022-07-29T14:27:42;1.98;;;1.70;;
16737;SDS011;17906;47.684;10.806;2022-07-29T14:30:11;5.85;;;1.75;;
16737;SDS011;17906;47.684;10.806;2022-07-29T14:32:38;3.05;;;1.50;;
16737;SDS011;17906;47.684;10.806;2022-07-29T14:35:05;2.60;;;1.55;;
16737;SDS011;17906;47.684;10.806;2022-07-29T14:37:32;4.15;;;1.80;;
16737;SDS011;17906;47.684;10.806;2022-07-29T14:40:00;2.05;;;1.60;;
16737;SDS011;17906;47.684;10.806;2022-07-29T14:42:28;2.30;;;1.50;;
16737;SDS011;17906;47.684;10.806;2022-07-29T14:44:56;2.67;;;1.70;;
16737;SDS011;17906;47.684;10.806;2022-07-29T14:47:24;3.55;;;1.80;;
16737;SDS011;17906;47.684;10.806;2022-07-29T14:49:50;4.45;;;2.30;;
16737;SDS011;17906;47.684;10.806;2022-07-29T14:52:17;2.75;;;1.73;;
16737;SDS011;17906;47.684;10.806;2022-07-29T14:54:44;3.88;;;1.98;;
16737;SDS011;17906;47.684;10.806;2022-07-29T14:57:10;3.00;;;1.90;;
16737;SDS011;17906;47.684;10.806;2022-07-29T14:59:37;3.63;;;2.13;;